sensor_id;sensor_type;location;lat;lon;timestamp;temperature;humidity
21590;DHT22;10957;50.968;6.828;2022-08-19T00:01:38;17.90;99.90
21590;DHT22;10957;50.968;6.828;2022-08-19T00:06:42;17.90;99.90
21590;DHT22;10957;50.968;6.828;2022-08-19T00:11:43;17.90;99.90
21590;DHT22;10957;50.968;6.828;2022-08-19T00:16:45;17.80;99.90
21590;DHT22;10957;50.968;6.828;2022-08-19T00:21:47;17.80;99.90
21590;DHT22;10957;50.968;6.828;2022-08-19T00:26:48;17.70;99.90
21590;DHT22;10957;50.968;6.828;2022-08-19T00:31:50;17.60;99.90
21590;DHT22;10957;50.968;6.828;2022-08-19T00:36:55;17.60;99.90
21590;DHT22;10957;50.968;6.828;2022-08-19T00:41:55;17.60;99.90
21590;DHT22;10957;50.968;6.828;2022-08-19T00:46:58;17.50;99.90
21590;DHT22;10957;50.968;6.828;2022-08-19T00:52:29;17.60;99.90
21590;DHT22;10957;50.968;6.828;2022-08-19T00:57:38;17.50;99.90
21590;DHT22;10957;50.968;6.828;2022-08-19T01:02:42;17.40;99.90
21590;DHT22;10957;50.968;6.828;2022-08-19T01:07:43;17.50;99.90
21590;DHT22;10957;50.968;6.828;2022-08-19T01:12:45;17.40;99.90
21590;DHT22;10957;50.968;6.828;2022-08-19T01:17:46;17.40;99.90
21590;DHT22;10957;50.968;6.828;2022-08-19T01:22:50;17.30;99.90
21590;DHT22;10957;50.968;6.828;2022-08-19T01:27:52;17.30;99.90
21590;DHT22;10957;50.968;6.828;2022-08-19T01:32:54;17.30;99.90
21590;DHT22;10957;50.968;6.828;2022-08-19T01:38:04;17.30;99.90
21590;DHT22;10957;50.968;6.828;2022-08-19T01:43:08;17.30;99.90
21590;DHT22;10957;50.968;6.828;2022-08-19T01:48:09;17.20;99.90
21590;DHT22;10957;50.968;6.828;2022-08-19T01:53:11;17.20;99.90
21590;DHT22;10957;50.968;6.828;2022-08-19T01:58:15;17.10;99.90
21590;DHT22;10957;50.968;6.828;2022-08-19T02:03:17;17.00;99.90
21590;DHT22;10957;50.968;6.828;2022-08-19T02:08:18;17.00;99.90
21590;DHT22;10957;50.968;6.828;2022-08-19T02:13:19;17.00;99.90
21590;DHT22;10957;50.968;6.828;2022-08-19T02:18:20;17.00;99.90
21590;DHT22;10957;50.968;6.828;2022-08-19T02:23:20;16.90;99.90
21590;DHT22;10957;50.968;6.828;2022-08-19T02:28:21;17.00;99.90
21590;DHT22;10957;50.968;6.828;2022-08-19T02:33:22;16.90;99.90
21590;DHT22;10957;50.968;6.828;2022-08-19T02:38:22;16.90;99.90
21590;DHT22;10957;50.968;6.828;2022-08-19T02:43:28;16.90;99.90
21590;DHT22;10957;50.968;6.828;2022-08-19T02:48:29;16.90;99.90
21590;DHT22;10957;50.968;6.828;2022-08-19T02:53:30;16.90;99.90
21590;DHT22;10957;50.968;6.828;2022-08-19T02:58:31;16.90;99.90
21590;DHT22;10957;50.968;6.828;2022-08-19T03:03:32;16.80;99.90
21590;DHT22;10957;50.968;6.828;2022-08-19T03:08:33;16.80;99.90
21590;DHT22;10957;50.968;6.828;2022-08-19T03:13:34;16.80;99.90
21590;DHT22;10957;50.968;6.828;2022-08-19T03:18:35;16.70;99.90
21590;DHT22;10957;50.968;6.828;2022-08-19T03:23:36;16.70;99.90
21590;DHT22;10957;50.968;6.828;2022-08-19T03:28:37;16.60;99.90
21590;DHT22;10957;50.968;6.828;2022-08-19T03:33:38;16.60;99.90
21590;DHT22;10957;50.968;6.828;2022-08-19T03:38:47;16.60;99.90
21590;DHT22;10957;50.968;6.828;2022-08-19T03:43:48;16.60;99.90
21590;DHT22;10957;50.968;6.828;2022-08-19T03:48:52;16.60;99.90
21590;DHT22;10957;50.968;6.828;2022-08-19T04:20:46;16.80;99.90
21590;DHT22;10957;50.968;6.828;2022-08-19T04:25:47;16.80;99.90
21590;DHT22;10957;50.968;6.828;2022-08-19T04:30:51;16.80;99.90
21590;DHT22;10957;50.968;6.828;2022-08-19T04:35:52;16.80;99.90
21590;DHT22;10957;50.968;6.828;2022-08-19T04:40:53;16.80;99.90
21590;DHT22;10957;50.968;6.828;2022-08-19T04:46:12;16.90;99.90
21590;DHT22;10957;50.968;6.828;2022-08-19T04:51:13;16.80;99.90
21590;DHT22;10957;50.968;6.828;2022-08-19T04:56:16;16.90;99.90
21590;DHT22;10957;50.968;6.828;2022-08-19T05:01:20;17.00;99.90
21590;DHT22;10957;50.968;6.828;2022-08-19T05:06:22;17.10;99.90
21590;DHT22;10957;50.968;6.828;2022-08-19T05:11:29;17.20;99.90
21590;DHT22;10957;50.968;6.828;2022-08-19T05:16:30;17.30;99.90
21590;DHT22;10957;50.968;6.828;2022-08-19T05:21:30;17.40;99.90
21590;DHT22;10957;50.968;6.828;2022-08-19T05:26:52;17.60;99.90
21590;DHT22;10957;50.968;6.828;2022-08-19T05:31:54;17.70;99.90
21590;DHT22;10957;50.968;6.828;2022-08-19T05:36:57;17.70;99.90
21590;DHT22;10957;50.968;6.828;2022-08-19T05:42:02;17.80;99.90
21590;DHT22;10957;50.968;6.828;2022-08-19T05:47:05;17.80;99.90
21590;DHT22;10957;50.968;6.828;2022-08-19T05:52:09;18.00;99.90
21590;DHT22;10957;50.968;6.828;2022-08-19T05:57:11;18.10;99.90
21590;DHT22;10957;50.968;6.828;2022-08-19T06:02:11;18.30;99.90
21590;DHT22;10957;50.968;6.828;2022-08-19T06:07:13;18.40;99.90
21590;DHT22;10957;50.968;6.828;2022-08-19T06:12:15;18.60;99.90
21590;DHT22;10957;50.968;6.828;2022-08-19T06:17:16;18.70;99.90
21590;DHT22;10957;50.968;6.828;2022-08-19T06:22:17;18.80;99.90
21590;DHT22;10957;50.968;6.828;2022-08-19T06:27:18;18.80;99.90
21590;DHT22;10957;50.968;6.828;2022-08-19T06:32:19;19.00;99.90
21590;DHT22;10957;50.968;6.828;2022-08-19T06:37:19;19.20;99.90
21590;DHT22;10957;50.968;6.828;2022-08-19T06:42:22;19.40;99.90
21590;DHT22;10957;50.968;6.828;2022-08-19T06:47:22;19.50;99.90
21590;DHT22;10957;50.968;6.828;2022-08-19T06:52:23;19.70;99.90
21590;DHT22;10957;50.968;6.828;2022-08-19T06:57:24;19.50;99.90
21590;DHT22;10957;50.968;6.828;2022-08-19T07:02:25;19.20;99.90
21590;DHT22;10957;50.968;6.828;2022-08-19T07:07:26;19.30;99.90
21590;DHT22;10957;50.968;6.828;2022-08-19T07:12:30;19.30;99.90
21590;DHT22;10957;50.968;6.828;2022-08-19T07:17:34;19.40;99.90
21590;DHT22;10957;50.968;6.828;2022-08-19T07:22:39;19.30;99.90
21590;DHT22;10957;50.968;6.828;2022-08-19T07:27:40;19.30;99.90
21590;DHT22;10957;50.968;6.828;2022-08-19T07:32:41;19.40;99.90
21590;DHT22;10957;50.968;6.828;2022-08-19T07:37:42;19.40;99.90
21590;DHT22;10957;50.968;6.828;2022-08-19T07:42:44;19.60;99.90
21590;DHT22;10957;50.968;6.828;2022-08-19T07:47:45;19.80;99.90
21590;DHT22;10957;50.968;6.828;2022-08-19T07:52:47;19.70;99.90
21590;DHT22;10957;50.968;6.828;2022-08-19T07:57:49;19.90;99.90
21590;DHT22;10957;50.968;6.828;2022-08-19T08:02:53;20.40;99.90
21590;DHT22;10957;50.968;6.828;2022-08-19T08:07:54;20.80;99.90
21590;DHT22;10957;50.968;6.828;2022-08-19T08:13:13;20.60;99.90
21590;DHT22;10957;50.968;6.828;2022-08-19T08:18:14;21.10;99.90
21590;DHT22;10957;50.968;6.828;2022-08-19T08:23:15;21.60;99.90
21590;DHT22;10957;50.968;6.828;2022-08-19T08:28:29;21.60;99.90
21590;DHT22;10957;50.968;6.828;2022-08-19T08:33:30;22.20;95.50
21590;DHT22;10957;50.968;6.828;2022-08-19T08:38:32;22.40;73.50
21590;DHT22;10957;50.968;6.828;2022-08-19T08:43:35;22.60;56.00
21590;DHT22;10957;50.968;6.828;2022-08-19T08:53:57;22.60;48.90
21590;DHT22;10957;50.968;6.828;2022-08-19T08:59:05;22.10;53.70
21590;DHT22;10957;50.968;6.828;2022-08-19T09:04:11;22.20;55.90
21590;DHT22;10957;50.968;6.828;2022-08-19T09:09:37;22.50;54.10
21590;DHT22;10957;50.968;6.828;2022-08-19T09:20:03;22.70;32.30
21590;DHT22;10957;50.968;6.828;2022-08-19T09:25:08;22.80;28.50
21590;DHT22;10957;50.968;6.828;2022-08-19T09:30:15;23.40;25.70
21590;DHT22;10957;50.968;6.828;2022-08-19T09:35:17;23.60;21.50
21590;DHT22;10957;50.968;6.828;2022-08-19T09:40:19;23.90;11.30
21590;DHT22;10957;50.968;6.828;2022-08-19T09:45:21;23.90;12.30
21590;DHT22;10957;50.968;6.828;2022-08-19T09:50:25;24.30;9.40
21590;DHT22;10957;50.968;6.828;2022-08-19T09:55:25;24.30;6.90
21590;DHT22;10957;50.968;6.828;2022-08-19T10:00:26;24.80;3.80
21590;DHT22;10957;50.968;6.828;2022-08-19T10:05:27;25.20;3.60
21590;DHT22;10957;50.968;6.828;2022-08-19T10:10:48;25.00;1.00
21590;DHT22;10957;50.968;6.828;2022-08-19T10:15:49;25.60;1.00
21590;DHT22;10957;50.968;6.828;2022-08-19T10:21:09;25.50;1.00
21590;DHT22;10957;50.968;6.828;2022-08-19T10:26:12;25.40;1.00
21590;DHT22;10957;50.968;6.828;2022-08-19T10:31:17;25.10;1.00
21590;DHT22;10957;50.968;6.828;2022-08-19T10:36:20;24.60;1.10
21590;DHT22;10957;50.968;6.828;2022-08-19T10:41:25;25.20;1.00
21590;DHT22;10957;50.968;6.828;2022-08-19T10:46:27;25.50;1.00
21590;DHT22;10957;50.968;6.828;2022-08-19T10:51:28;24.90;1.00
21590;DHT22;10957;50.968;6.828;2022-08-19T10:56:48;24.80;1.00
21590;DHT22;10957;50.968;6.828;2022-08-19T11:01:52;25.00;1.00
21590;DHT22;10957;50.968;6.828;2022-08-19T11:06:52;25.00;1.00
21590;DHT22;10957;50.968;6.828;2022-08-19T11:11:54;25.00;1.00
21590;DHT22;10957;50.968;6.828;2022-08-19T11:16:56;25.00;1.00
21590;DHT22;10957;50.968;6.828;2022-08-19T11:21:57;25.60;1.00
21590;DHT22;10957;50.968;6.828;2022-08-19T11:27:04;26.20;1.00
21590;DHT22;10957;50.968;6.828;2022-08-19T11:32:08;26.00;1.00
21590;DHT22;10957;50.968;6.828;2022-08-19T11:37:09;24.90;1.00
21590;DHT22;10957;50.968;6.828;2022-08-19T11:42:10;24.90;1.00
21590;DHT22;10957;50.968;6.828;2022-08-19T11:47:30;25.40;1.00
21590;DHT22;10957;50.968;6.828;2022-08-19T11:52:31;25.60;1.00
21590;DHT22;10957;50.968;6.828;2022-08-19T11:57:32;25.40;1.00
21590;DHT22;10957;50.968;6.828;2022-08-19T12:02:33;25.40;1.00
21590;DHT22;10957;50.968;6.828;2022-08-19T12:07:35;25.30;1.00
21590;DHT22;10957;50.968;6.828;2022-08-19T12:12:36;25.90;1.00
21590;DHT22;10957;50.968;6.828;2022-08-19T12:17:46;26.10;1.00
21590;DHT22;10957;50.968;6.828;2022-08-19T12:22:46;25.50;1.00
21590;DHT22;10957;50.968;6.828;2022-08-19T12:27:48;25.60;1.00
21590;DHT22;10957;50.968;6.828;2022-08-19T12:32:50;26.00;1.00
21590;DHT22;10957;50.968;6.828;2022-08-19T12:37:51;26.80;1.00
21590;DHT22;10957;50.968;6.828;2022-08-19T12:42:53;26.40;1.00
21590;DHT22;10957;50.968;6.828;2022-08-19T12:47:54;26.10;1.00
21590;DHT22;10957;50.968;6.828;2022-08-19T12:52:56;26.30;1.00
21590;DHT22;10957;50.968;6.828;2022-08-19T12:57:57;26.60;1.00
21590;DHT22;10957;50.968;6.828;2022-08-19T13:02:59;26.80;1.00
21590;DHT22;10957;50.968;6.828;2022-08-19T13:08:01;26.80;1.00
21590;DHT22;10957;50.968;6.828;2022-08-19T13:13:05;26.70;1.00
21590;DHT22;10957;50.968;6.828;2022-08-19T13:18:08;26.90;1.00
21590;DHT22;10957;50.968;6.828;2022-08-19T13:23:10;26.90;1.00
21590;DHT22;10957;50.968;6.828;2022-08-19T13:28:11;26.90;1.00
21590;DHT22;10957;50.968;6.828;2022-08-19T13:33:12;26.60;1.00
21590;DHT22;10957;50.968;6.828;2022-08-19T13:38:20;27.20;1.00
21590;DHT22;10957;50.968;6.828;2022-08-19T13:43:23;27.00;1.00
21590;DHT22;10957;50.968;6.828;2022-08-19T13:48:27;27.00;1.00
21590;DHT22;10957;50.968;6.828;2022-08-19T13:53:28;26.50;1.00
21590;DHT22;10957;50.968;6.828;2022-08-19T13:58:28;27.50;1.00
21590;DHT22;10957;50.968;6.828;2022-08-19T14:03:31;27.10;1.00
21590;DHT22;10957;50.968;6.828;2022-08-19T14:08:32;26.90;1.00
21590;DHT22;10957;50.968;6.828;2022-08-19T14:13:33;26.80;1.00
21590;DHT22;10957;50.968;6.828;2022-08-19T14:18:34;27.40;1.00
21590;DHT22;10957;50.968;6.828;2022-08-19T14:23:35;27.10;1.00
21590;DHT22;10957;50.968;6.828;2022-08-19T14:28:36;27.10;1.00
21590;DHT22;10957;50.968;6.828;2022-08-19T14:33:37;27.30;1.00
21590;DHT22;10957;50.968;6.828;2022-08-19T14:38:38;27.20;1.00
21590;DHT22;10957;50.968;6.828;2022-08-19T14:43:39;27.50;1.00
21590;DHT22;10957;50.968;6.828;2022-08-19T14:48:41;27.60;1.00
21590;DHT22;10957;50.968;6.828;2022-08-19T14:53:42;27.60;1.00
21590;DHT22;10957;50.968;6.828;2022-08-19T14:58:44;27.80;1.00
21590;DHT22;10957;50.968;6.828;2022-08-19T15:03:46;27.50;1.00
21590;DHT22;10957;50.968;6.828;2022-08-19T15:08:47;27.20;1.00
21590;DHT22;10957;50.968;6.828;2022-08-19T15:13:48;27.60;1.00
21590;DHT22;10957;50.968;6.828;2022-08-19T15:18:53;27.70;1.00
21590;DHT22;10957;50.968;6.828;2022-08-19T15:23:56;27.90;1.00
21590;DHT22;10957;50.968;6.828;2022-08-19T15:28:59;27.60;1.00
21590;DHT22;10957;50.968;6.828;2022-08-19T15:34:00;27.40;1.00
21590;DHT22;10957;50.968;6.828;2022-08-19T15:39:02;26.80;1.00
21590;DHT22;10957;50.968;6.828;2022-08-19T15:44:05;26.40;1.00
21590;DHT22;10957;50.968;6.828;2022-08-19T15:49:11;26.20;1.00
21590;DHT22;10957;50.968;6.828;2022-08-19T15:54:18;26.30;1.00
21590;DHT22;10957;50.968;6.828;2022-08-19T15:59:20;26.10;1.00
21590;DHT22;10957;50.968;6.828;2022-08-19T16:04:39;25.90;1.00
21590;DHT22;10957;50.968;6.828;2022-08-19T16:09:59;25.80;1.00
21590;DHT22;10957;50.968;6.828;2022-08-19T16:14:59;25.70;1.00
21590;DHT22;10957;50.968;6.828;2022-08-19T16:20:03;25.70;1.00
21590;DHT22;10957;50.968;6.828;2022-08-19T16:25:05;26.10;1.00
21590;DHT22;10957;50.968;6.828;2022-08-19T16:30:07;26.00;1.00
21590;DHT22;10957;50.968;6.828;2022-08-19T16:35:09;25.90;1.00
21590;DHT22;10957;50.968;6.828;2022-08-19T16:40:11;25.90;1.00
21590;DHT22;10957;50.968;6.828;2022-08-19T16:45:11;25.60;1.00
21590;DHT22;10957;50.968;6.828;2022-08-19T16:50:12;25.50;1.00
21590;DHT22;10957;50.968;6.828;2022-08-19T16:55:13;25.40;1.00
21590;DHT22;10957;50.968;6.828;2022-08-19T17:00:14;25.10;1.00
21590;DHT22;10957;50.968;6.828;2022-08-19T17:05:16;25.00;1.00
21590;DHT22;10957;50.968;6.828;2022-08-19T17:10:16;24.90;1.00
21590;DHT22;10957;50.968;6.828;2022-08-19T17:15:17;24.80;1.00
21590;DHT22;10957;50.968;6.828;2022-08-19T17:20:18;24.40;3.10
21590;DHT22;10957;50.968;6.828;2022-08-19T17:25:19;23.70;28.20
21590;DHT22;10957;50.968;6.828;2022-08-19T17:30:21;23.60;45.90
21590;DHT22;10957;50.968;6.828;2022-08-19T17:35:23;23.70;40.90
21590;DHT22;10957;50.968;6.828;2022-08-19T17:40:24;23.80;18.60
21590;DHT22;10957;50.968;6.828;2022-08-19T17:45:25;23.90;13.60
21590;DHT22;10957;50.968;6.828;2022-08-19T17:50:28;23.90;12.90
21590;DHT22;10957;50.968;6.828;2022-08-19T17:55:29;24.00;11.70
21590;DHT22;10957;50.968;6.828;2022-08-19T18:00:32;23.90;12.90
21590;DHT22;10957;50.968;6.828;2022-08-19T18:05:39;23.80;12.40
21590;DHT22;10957;50.968;6.828;2022-08-19T18:10:40;23.80;14.10
21590;DHT22;10957;50.968;6.828;2022-08-19T18:15:41;23.70;15.20
21590;DHT22;10957;50.968;6.828;2022-08-19T18:20:42;23.70;12.80
21590;DHT22;10957;50.968;6.828;2022-08-19T18:25:43;23.70;12.80
21590;DHT22;10957;50.968;6.828;2022-08-19T18:30:44;23.70;12.80
21590;DHT22;10957;50.968;6.828;2022-08-19T18:35:46;23.70;13.00
21590;DHT22;10957;50.968;6.828;2022-08-19T18:40:48;23.60;12.70
21590;DHT22;10957;50.968;6.828;2022-08-19T18:46:07;23.60;12.70
21590;DHT22;10957;50.968;6.828;2022-08-19T18:51:27;23.40;13.60
21590;DHT22;10957;50.968;6.828;2022-08-19T18:56:34;23.30;14.60
21590;DHT22;10957;50.968;6.828;2022-08-19T19:01:38;23.10;16.30
21590;DHT22;10957;50.968;6.828;2022-08-19T19:06:40;22.90;17.90
21590;DHT22;10957;50.968;6.828;2022-08-19T19:11:43;22.80;19.80
21590;DHT22;10957;50.968;6.828;2022-08-19T19:16:44;22.80;19.80
21590;DHT22;10957;50.968;6.828;2022-08-19T19:21:47;22.60;39.10
21590;DHT22;10957;50.968;6.828;2022-08-19T19:26:50;22.10;87.70
21590;DHT22;10957;50.968;6.828;2022-08-19T19:31:52;21.60;99.90
21590;DHT22;10957;50.968;6.828;2022-08-19T19:36:53;21.20;99.90
21590;DHT22;10957;50.968;6.828;2022-08-19T19:41:54;21.20;99.90
21590;DHT22;10957;50.968;6.828;2022-08-19T19:46:54;21.10;99.90
21590;DHT22;10957;50.968;6.828;2022-08-19T19:51:56;21.10;99.90
21590;DHT22;10957;50.968;6.828;2022-08-19T19:56:57;21.10;99.90
21590;DHT22;10957;50.968;6.828;2022-08-19T20:01:57;21.20;99.90
21590;DHT22;10957;50.968;6.828;2022-08-19T20:06:58;21.10;99.90
21590;DHT22;10957;50.968;6.828;2022-08-19T20:11:59;21.00;99.90
21590;DHT22;10957;50.968;6.828;2022-08-19T20:17:01;20.80;99.90
21590;DHT22;10957;50.968;6.828;2022-08-19T20:22:04;20.70;99.90
21590;DHT22;10957;50.968;6.828;2022-08-19T20:27:05;20.60;99.90
21590;DHT22;10957;50.968;6.828;2022-08-19T20:32:07;20.60;99.90
21590;DHT22;10957;50.968;6.828;2022-08-19T20:37:08;20.50;99.90
21590;DHT22;10957;50.968;6.828;2022-08-19T20:42:09;20.40;99.90
21590;DHT22;10957;50.968;6.828;2022-08-19T20:47:10;20.40;99.90
21590;DHT22;10957;50.968;6.828;2022-08-19T20:52:11;20.40;99.90
21590;DHT22;10957;50.968;6.828;2022-08-19T20:57:12;20.40;99.90
21590;DHT22;10957;50.968;6.828;2022-08-19T21:02:13;20.40;99.90
21590;DHT22;10957;50.968;6.828;2022-08-19T21:07:14;20.40;99.90
21590;DHT22;10957;50.968;6.828;2022-08-19T21:12:15;20.40;99.90
21590;DHT22;10957;50.968;6.828;2022-08-19T21:17:17;20.40;99.90
21590;DHT22;10957;50.968;6.828;2022-08-19T21:22:17;20.40;99.90
21590;DHT22;10957;50.968;6.828;2022-08-19T21:27:18;20.40;99.90
21590;DHT22;10957;50.968;6.828;2022-08-19T21:32:19;20.50;99.90
21590;DHT22;10957;50.968;6.828;2022-08-19T21:37:21;20.40;99.90
21590;DHT22;10957;50.968;6.828;2022-08-19T21:42:22;20.40;99.90
21590;DHT22;10957;50.968;6.828;2022-08-19T21:47:23;20.40;99.90
21590;DHT22;10957;50.968;6.828;2022-08-19T21:52:25;20.50;99.90
21590;DHT22;10957;50.968;6.828;2022-08-19T21:57:26;20.50;99.90
21590;DHT22;10957;50.968;6.828;2022-08-19T22:02:27;20.50;99.90
21590;DHT22;10957;50.968;6.828;2022-08-19T22:07:27;20.50;99.90
21590;DHT22;10957;50.968;6.828;2022-08-19T22:12:31;20.40;99.90
21590;DHT22;10957;50.968;6.828;2022-08-19T22:17:32;20.40;99.90
21590;DHT22;10957;50.968;6.828;2022-08-19T22:22:34;20.40;99.90
21590;DHT22;10957;50.968;6.828;2022-08-19T22:27:35;20.50;99.90
21590;DHT22;10957;50.968;6.828;2022-08-19T22:32:36;20.40;99.90
21590;DHT22;10957;50.968;6.828;2022-08-19T22:37:37;20.40;99.90
21590;DHT22;10957;50.968;6.828;2022-08-19T22:42:38;20.30;99.90
21590;DHT22;10957;50.968;6.828;2022-08-19T22:47:39;20.40;99.90
21590;DHT22;10957;50.968;6.828;2022-08-19T22:52:41;20.30;99.90
21590;DHT22;10957;50.968;6.828;2022-08-19T22:57:43;20.40;99.90
21590;DHT22;10957;50.968;6.828;2022-08-19T23:02:44;20.40;99.90
21590;DHT22;10957;50.968;6.828;2022-08-19T23:07:46;20.40;99.90
21590;DHT22;10957;50.968;6.828;2022-08-19T23:12:47;20.30;99.90
21590;DHT22;10957;50.968;6.828;2022-08-19T23:17:49;20.30;99.90
21590;DHT22;10957;50.968;6.828;2022-08-19T23:22:50;20.30;99.90
21590;DHT22;10957;50.968;6.828;2022-08-19T23:27:52;20.40;99.90
21590;DHT22;10957;50.968;6.828;2022-08-19T23:33:20;20.30;99.90
21590;DHT22;10957;50.968;6.828;2022-08-19T23:38:25;20.30;99.90
21590;DHT22;10957;50.968;6.828;2022-08-19T23:43:29;20.30;99.90
21590;DHT22;10957;50.968;6.828;2022-08-19T23:48:32;20.30;99.90
21590;DHT22;10957;50.968;6.828;2022-08-19T23:53:35;20.20;99.90
21590;DHT22;10957;50.968;6.828;2022-08-19T23:58:38;20.20;99.90
